Time;durP1;ratioP1;P1;durP2;ratioP2;P2;SDS_P1;SDS_P2;PMS_P1;PMS_P2;Temp;Humidity;BMP_temperature;BMP_pressure;BME280_temperature;BME280_humidity;BME280_pressure;Samples;Min_cycle;Max_cycle;Signal;HPM_P1;HPM_P2
2021/01/19 00:02:04;;;;;;;124.07;66.38;;;;;;;;;;6277271;28;20140;-68
2021/01/19 00:05:06;;;;;;;123.55;67.35;;;;;;;;;;5929301;28;9999832;-68
2021/01/19 00:08:08;;;;;;;120.07;65.75;;;;;;;;;;6281249;28;20052;-69
2021/01/19 00:11:09;;;;;;;114.85;63.33;;;;;;;;;;6284630;28;20040;-70
2021/01/19 00:14:11;;;;;;;119.40;65.18;;;;;;;;;;6273898;28;20068;-70
2021/01/19 00:17:12;;;;;;;118.05;65.05;;;;;;;;;;6281629;28;20124;-68
2021/01/19 00:20:13;;;;;;;119.13;63.38;;;;;;;;;;6278730;28;20040;-69
2021/01/19 00:23:14;;;;;;;119.03;65.70;;;;;;;;;;6277248;28;20048;-67
2021/01/19 00:26:15;;;;;;;131.60;72.10;;;;;;;;;;6283200;28;20048;-69
2021/01/19 00:29:17;;;;;;;285.98;128.02;;;;;;;;;;6278404;28;20075;-67
2021/01/19 00:32:18;;;;;;;246.77;119.70;;;;;;;;;;6281104;28;20094;-67
2021/01/19 00:35:19;;;;;;;154.30;81.88;;;;;;;;;;6279692;28;20048;-69
2021/01/19 00:38:20;;;;;;;226.45;110.22;;;;;;;;;;6288226;28;20082;-66
2021/01/19 00:41:21;;;;;;;127.53;68.30;;;;;;;;;;6285036;28;20531;-67
2021/01/19 00:44:23;;;;;;;117.43;63.72;;;;;;;;;;6277848;28;20056;-67
2021/01/19 00:47:24;;;;;;;119.88;64.93;;;;;;;;;;6283062;28;20044;-67
2021/01/19 00:50:25;;;;;;;117.70;64.22;;;;;;;;;;6282271;28;20536;-68
2021/01/19 00:53:26;;;;;;;115.07;64.65;;;;;;;;;;6281235;28;20565;-66
2021/01/19 00:56:35;;;;;;;125.43;64.57;;;;;;;;;;6275189;28;20055;-67
2021/01/19 00:59:37;;;;;;;115.07;63.70;;;;;;;;;;6280767;28;20099;-67
2021/01/19 01:02:38;;;;;;;113.00;63.63;;;;;;;;;;6272366;28;20931;-69
2021/01/19 01:05:39;;;;;;;115.97;65.28;;;;;;;;;;6280820;28;20063;-67
2021/01/19 01:08:40;;;;;;;115.15;63.20;;;;;;;;;;6274267;28;20452;-67
2021/01/19 01:11:43;;;;;;;117.35;64.28;;;;;;;;;;6277727;28;20059;-67
2021/01/19 01:14:45;;;;;;;124.68;65.93;;;;;;;;;;6276247;28;20040;-68
2021/01/19 01:17:46;;;;;;;118.40;62.78;;;;;;;;;;6284279;28;20049;-67
2021/01/19 01:20:49;;;;;;;123.22;65.55;;;;;;;;;;6282871;28;20070;-67
2021/01/19 01:23:50;;;;;;;116.95;62.97;;;;;;;;;;6278356;28;20048;-66
2021/01/19 01:26:53;;;;;;;116.75;65.40;;;;;;;;;;6280108;28;20080;-67
2021/01/19 01:29:54;;;;;;;117.50;67.47;;;;;;;;;;6277655;28;20045;-68
2021/01/19 01:32:55;;;;;;;118.18;65.78;;;;;;;;;;6269893;28;20135;-67
2021/01/19 01:35:56;;;;;;;116.05;66.72;;;;;;;;;;6280724;28;20701;-68
2021/01/19 01:38:57;;;;;;;119.75;66.47;;;;;;;;;;6277469;28;20070;-67
2021/01/19 01:41:58;;;;;;;125.40;67.57;;;;;;;;;;6277539;28;20040;-67
2021/01/19 01:45:00;;;;;;;121.97;66.30;;;;;;;;;;6283319;28;20415;-68
2021/01/19 01:48:01;;;;;;;120.90;64.25;;;;;;;;;;6282302;28;20056;-68
2021/01/19 01:51:03;;;;;;;123.32;66.18;;;;;;;;;;6278237;28;20044;-67
2021/01/19 01:54:04;;;;;;;130.10;69.65;;;;;;;;;;6280191;28;20743;-67
2021/01/19 01:57:06;;;;;;;130.65;67.80;;;;;;;;;;6277789;28;20447;-67
2021/01/19 02:00:09;;;;;;;137.50;69.82;;;;;;;;;;6279454;28;20036;-66
2021/01/19 02:03:10;;;;;;;127.50;67.23;;;;;;;;;;6273320;28;20086;-69
2021/01/19 02:06:13;;;;;;;134.80;71.28;;;;;;;;;;6277438;28;20098;-70
2021/01/19 02:09:18;;;;;;;140.60;70.43;;;;;;;;;;5932383;28;10000095;-69
2021/01/19 02:12:25;;;;;;;133.40;69.45;;;;;;;;;;6283756;28;20056;-68
2021/01/19 02:15:35;;;;;;;138.10;70.43;;;;;;;;;;6282600;28;20720;-66
2021/01/19 02:18:53;;;;;;;143.93;71.18;;;;;;;;;;6280512;28;20047;-68
2021/01/19 02:22:08;;;;;;;142.80;73.82;;;;;;;;;;6283132;28;20041;-69
2021/01/19 02:25:11;;;;;;;;;;;;;;;;;;6283029;28;20075;-69
2021/01/19 02:28:19;;;;;;;141.52;69.50;;;;;;;;;;6283312;28;19920;-69
2021/01/19 02:31:35;;;;;;;147.75;72.25;;;;;;;;;;6283751;28;20044;-68
2021/01/19 02:34:46;;;;;;;150.40;74.25;;;;;;;;;;6283782;28;20440;-68
2021/01/19 02:37:51;;;;;;;148.85;71.13;;;;;;;;;;6287053;28;20048;-68
2021/01/19 02:40:54;;;;;;;143.65;72.95;;;;;;;;;;6283569;28;20494;-68
2021/01/19 02:44:00;;;;;;;151.45;74.00;;;;;;;;;;6282758;28;20126;-67
2021/01/19 02:47:01;;;;;;;144.27;74.88;;;;;;;;;;6288540;28;20136;-67
2021/01/19 02:50:06;;;;;;;145.10;74.80;;;;;;;;;;6286109;28;20495;-68
2021/01/19 02:53:07;;;;;;;158.13;73.55;;;;;;;;;;6279070;28;20592;-69
2021/01/19 02:56:13;;;;;;;155.07;75.70;;;;;;;;;;6272061;28;20487;-67
2021/01/19 02:59:19;;;;;;;151.52;73.45;;;;;;;;;;6285238;28;20406;-69
2021/01/19 03:02:22;;;;;;;147.73;74.40;;;;;;;;;;6281205;28;20052;-70
2021/01/19 03:05:26;;;;;;;144.10;74.97;;;;;;;;;;6284467;28;20071;-69
2021/01/19 03:08:27;;;;;;;155.07;74.30;;;;;;;;;;6281315;28;20086;-67
2021/01/19 03:11:28;;;;;;;143.52;75.68;;;;;;;;;;6281702;28;20055;-69
2021/01/19 03:14:30;;;;;;;148.20;73.25;;;;;;;;;;6281362;28;20044;-67
2021/01/19 03:17:31;;;;;;;152.32;76.55;;;;;;;;;;6287576;28;20049;-68
2021/01/19 03:20:33;;;;;;;159.25;77.32;;;;;;;;;;6280052;28;20047;-68
2021/01/19 03:23:35;;;;;;;144.77;75.10;;;;;;;;;;6285389;28;20063;-67
2021/01/19 03:26:36;;;;;;;145.70;74.68;;;;;;;;;;6280887;28;20078;-68
2021/01/19 03:29:37;;;;;;;157.60;76.20;;;;;;;;;;6282814;28;20044;-66
2021/01/19 03:32:38;;;;;;;155.63;74.43;;;;;;;;;;6283991;28;20072;-68
2021/01/19 03:35:40;;;;;;;154.23;76.70;;;;;;;;;;6285904;28;20047;-68
2021/01/19 03:38:41;;;;;;;147.65;73.50;;;;;;;;;;6281860;28;20059;-67
2021/01/19 03:41:42;;;;;;;150.60;75.72;;;;;;;;;;6283615;28;20475;-69
2021/01/19 03:44:44;;;;;;;148.85;72.78;;;;;;;;;;6285242;28;20471;-68
2021/01/19 03:47:45;;;;;;;151.05;71.50;;;;;;;;;;6286334;28;20106;-68
2021/01/19 03:50:47;;;;;;;155.63;74.50;;;;;;;;;;6286622;28;20044;-69
2021/01/19 03:53:48;;;;;;;158.27;75.28;;;;;;;;;;6278975;28;20410;-69
2021/01/19 03:56:49;;;;;;;155.73;75.68;;;;;;;;;;6274031;28;20052;-69
2021/01/19 03:59:50;;;;;;;153.88;75.47;;;;;;;;;;6280073;28;20135;-70
2021/01/19 04:02:51;;;;;;;157.35;76.05;;;;;;;;;;6286709;28;20475;-67
2021/01/19 04:05:53;;;;;;;168.13;78.85;;;;;;;;;;6288122;28;20066;-71
2021/01/19 04:08:54;;;;;;;159.40;76.57;;;;;;;;;;6289098;28;20040;-68
2021/01/19 04:11:55;;;;;;;156.88;76.28;;;;;;;;;;6289412;28;20052;-68
2021/01/19 04:14:56;;;;;;;152.75;78.65;;;;;;;;;;6288112;28;20040;-69
2021/01/19 04:17:57;;;;;;;166.02;77.65;;;;;;;;;;6286034;28;20484;-68
2021/01/19 04:20:59;;;;;;;170.85;79.03;;;;;;;;;;6279674;28;20045;-71
2021/01/19 04:24:00;;;;;;;160.43;77.43;;;;;;;;;;6283315;28;20064;-68
2021/01/19 04:27:02;;;;;;;151.57;77.80;;;;;;;;;;6262273;28;20033;-68
2021/01/19 04:30:07;;;;;;;151.45;74.68;;;;;;;;;;6258356;28;20052;-68
2021/01/19 04:33:09;;;;;;;160.38;77.35;;;;;;;;;;6259218;28;20051;-69
2021/01/19 04:36:11;;;;;;;156.70;75.05;;;;;;;;;;6269696;28;20148;-67
2021/01/19 04:39:12;;;;;;;160.90;78.43;;;;;;;;;;6285018;28;20051;-68
2021/01/19 04:42:18;;;;;;;164.05;77.22;;;;;;;;;;6283543;28;20123;-71
2021/01/19 04:45:19;;;;;;;148.52;74.32;;;;;;;;;;6287339;28;20596;-68
2021/01/19 04:48:21;;;;;;;159.13;77.00;;;;;;;;;;6283698;28;20059;-68
2021/01/19 04:51:25;;;;;;;149.02;77.40;;;;;;;;;;6282130;28;20048;-68
2021/01/19 04:54:26;;;;;;;157.57;77.60;;;;;;;;;;6286481;28;20048;-67
2021/01/19 04:57:30;;;;;;;153.15;75.72;;;;;;;;;;6283678;28;20399;-70
2021/01/19 05:00:33;;;;;;;158.23;77.47;;;;;;;;;;6279338;28;20056;-71
2021/01/19 05:03:42;;;;;;;151.15;75.13;;;;;;;;;;6279449;28;20484;-71
2021/01/19 05:07:14;;;;;;;162.77;79.20;;;;;;;;;;6278867;28;20044;-70
2021/01/19 05:10:15;;;;;;;154.95;75.53;;;;;;;;;;6271733;28;20144;-69
2021/01/19 05:13:16;;;;;;;163.32;79.32;;;;;;;;;;6278851;28;20116;-68
2021/01/19 05:16:18;;;;;;;155.25;78.13;;;;;;;;;;6276511;28;20460;-69
2021/01/19 05:19:22;;;;;;;165.52;76.78;;;;;;;;;;6277503;28;20057;-69
2021/01/19 05:22:24;;;;;;;167.07;77.32;;;;;;;;;;6276013;28;20045;-69
2021/01/19 05:25:25;;;;;;;163.75;80.97;;;;;;;;;;6274307;28;20059;-68
2021/01/19 05:28:30;;;;;;;159.93;78.43;;;;;;;;;;6279336;28;21561;-69
2021/01/19 05:31:31;;;;;;;166.98;81.07;;;;;;;;;;6281953;28;20048;-68
2021/01/19 05:34:35;;;;;;;167.23;79.80;;;;;;;;;;6280987;28;20143;-69
2021/01/19 05:37:37;;;;;;;173.73;83.85;;;;;;;;;;6280836;28;20052;-69
2021/01/19 05:40:43;;;;;;;160.07;80.43;;;;;;;;;;6280710;28;20144;-71
2021/01/19 05:43:44;;;;;;;164.77;79.03;;;;;;;;;;6283636;28;20059;-68
2021/01/19 05:46:48;;;;;;;164.75;81.90;;;;;;;;;;6283310;28;20091;-68
2021/01/19 05:49:49;;;;;;;159.20;82.32;;;;;;;;;;6279677;28;20071;-68
2021/01/19 05:52:52;;;;;;;150.63;78.78;;;;;;;;;;6280884;28;20047;-69
2021/01/19 05:56:01;;;;;;;161.60;83.30;;;;;;;;;;6282764;28;20052;-68
2021/01/19 05:59:02;;;;;;;158.32;83.10;;;;;;;;;;6283567;28;20429;-69
2021/01/19 06:02:09;;;;;;;157.40;83.85;;;;;;;;;;6272560;28;20049;-68
2021/01/19 06:05:12;;;;;;;167.27;82.88;;;;;;;;;;6279948;28;20136;-69
2021/01/19 06:08:14;;;;;;;165.25;81.10;;;;;;;;;;6280763;28;20048;-68
2021/01/19 06:11:15;;;;;;;154.27;80.18;;;;;;;;;;6280908;28;20075;-68
2021/01/19 06:14:20;;;;;;;157.00;77.97;;;;;;;;;;6279936;28;20263;-69
2021/01/19 06:17:22;;;;;;;152.00;77.45;;;;;;;;;;6273927;28;20040;-69
2021/01/19 06:20:23;;;;;;;152.13;77.13;;;;;;;;;;6272963;28;20352;-67
2021/01/19 06:23:26;;;;;;;149.13;76.03;;;;;;;;;;6275602;28;20044;-70
2021/01/19 06:26:27;;;;;;;149.05;76.43;;;;;;;;;;6278929;28;21040;-65
2021/01/19 06:29:28;;;;;;;149.02;74.88;;;;;;;;;;6278265;28;20171;-72
2021/01/19 06:32:32;;;;;;;147.77;76.45;;;;;;;;;;6280082;28;20048;-68
2021/01/19 06:35:40;;;;;;;146.47;76.33;;;;;;;;;;6281422;28;20055;-69
2021/01/19 06:38:45;;;;;;;142.63;73.38;;;;;;;;;;6277067;28;20098;-68
2021/01/19 06:41:47;;;;;;;143.70;74.53;;;;;;;;;;6286359;28;20127;-69
2021/01/19 06:44:51;;;;;;;143.75;74.00;;;;;;;;;;6280258;28;20115;-68
2021/01/19 06:47:53;;;;;;;144.32;74.25;;;;;;;;;;6276221;28;20094;-70
2021/01/19 06:50:56;;;;;;;147.70;74.63;;;;;;;;;;6277890;28;20397;-71
2021/01/19 06:54:01;;;;;;;139.40;72.65;;;;;;;;;;6286056;28;20059;-68
2021/01/19 06:57:13;;;;;;;142.15;74.63;;;;;;;;;;6277771;28;20052;-69
2021/01/19 07:00:19;;;;;;;141.38;73.68;;;;;;;;;;6276437;28;20088;-71
2021/01/19 07:03:22;;;;;;;146.27;78.07;;;;;;;;;;6275821;28;20097;-69
2021/01/19 07:06:47;;;;;;;144.80;74.20;;;;;;;;;;6274598;28;20479;-68
2021/01/19 07:10:07;;;;;;;157.68;79.57;;;;;;;;;;6272075;28;20067;-68
2021/01/19 07:13:16;;;;;;;196.73;95.10;;;;;;;;;;6276018;28;20044;-69
2021/01/19 07:16:23;;;;;;;166.63;75.60;;;;;;;;;;6276819;28;20047;-69
2021/01/19 07:19:30;;;;;;;172.95;76.18;;;;;;;;;;6278869;28;20040;-71
2021/01/19 07:22:50;;;;;;;167.50;75.65;;;;;;;;;;6267964;28;20041;-70
2021/01/19 07:25:52;;;;;;;173.10;74.80;;;;;;;;;;6277682;28;20048;-69
2021/01/19 07:28:53;;;;;;;167.45;76.35;;;;;;;;;;6275748;28;20041;-69
2021/01/19 07:31:54;;;;;;;159.77;75.55;;;;;;;;;;6270592;28;20136;-69
2021/01/19 07:34:55;;;;;;;166.05;78.47;;;;;;;;;;6276446;28;20471;-69
2021/01/19 07:37:58;;;;;;;161.10;77.95;;;;;;;;;;6273881;28;20052;-69
2021/01/19 07:41:00;;;;;;;158.70;75.90;;;;;;;;;;6274876;28;20049;-68
2021/01/19 07:44:01;;;;;;;151.60;74.22;;;;;;;;;;6275301;28;20554;-68
2021/01/19 07:47:13;;;;;;;165.82;78.28;;;;;;;;;;6279747;28;20598;-68
2021/01/19 07:50:16;;;;;;;174.57;79.03;;;;;;;;;;6280146;28;20185;-69
2021/01/19 07:53:17;;;;;;;165.82;75.32;;;;;;;;;;6279028;28;20124;-69
2021/01/19 07:56:25;;;;;;;155.25;72.72;;;;;;;;;;6281362;28;20449;-69
2021/01/19 07:59:26;;;;;;;165.40;78.45;;;;;;;;;;6277127;28;20482;-71
2021/01/19 08:02:27;;;;;;;168.02;79.25;;;;;;;;;;6278123;28;21076;-69
2021/01/19 08:05:28;;;;;;;161.50;82.75;;;;;;;;;;6280032;28;20163;-68
2021/01/19 08:08:38;;;;;;;165.25;78.68;;;;;;;;;;6280033;28;20110;-68
2021/01/19 08:11:41;;;;;;;153.93;72.10;;;;;;;;;;6276766;28;20387;-70
2021/01/19 08:14:43;;;;;;;147.02;73.82;;;;;;;;;;6271707;28;20137;-70
2021/01/19 08:17:50;;;;;;;153.50;71.75;;;;;;;;;;6281412;28;20056;-67
2021/01/19 08:20:51;;;;;;;146.73;70.70;;;;;;;;;;6282981;28;20051;-67
2021/01/19 08:23:52;;;;;;;142.85;72.35;;;;;;;;;;6282686;28;20144;-68
2021/01/19 08:26:56;;;;;;;132.05;69.18;;;;;;;;;;6285074;28;20361;-73
2021/01/19 08:29:57;;;;;;;145.18;69.95;;;;;;;;;;6275959;28;20041;-68
2021/01/19 08:32:59;;;;;;;148.75;69.30;;;;;;;;;;6287198;28;20044;-69
2021/01/19 08:36:05;;;;;;;146.55;72.22;;;;;;;;;;6277455;28;20057;-69
2021/01/19 08:39:09;;;;;;;151.23;72.40;;;;;;;;;;6281598;28;20128;-70
2021/01/19 08:42:11;;;;;;;140.82;71.60;;;;;;;;;;6280787;28;20052;-69
2021/01/19 08:45:13;;;;;;;147.48;70.35;;;;;;;;;;6279662;28;20060;-71
2021/01/19 08:48:15;;;;;;;146.18;70.82;;;;;;;;;;6280316;28;20124;-69
2021/01/19 08:51:21;;;;;;;144.85;69.00;;;;;;;;;;6279450;28;20068;-69
2021/01/19 08:54:22;;;;;;;128.90;66.18;;;;;;;;;;6278542;28;20052;-71
2021/01/19 08:57:24;;;;;;;136.25;67.30;;;;;;;;;;6276961;28;20063;-71
2021/01/19 09:00:26;;;;;;;135.88;66.50;;;;;;;;;;6281429;28;20052;-69
2021/01/19 09:03:27;;;;;;;129.07;65.82;;;;;;;;;;6277163;28;20487;-67
2021/01/19 09:06:29;;;;;;;139.88;65.93;;;;;;;;;;6277335;28;20099;-68
2021/01/19 09:09:30;;;;;;;119.15;63.33;;;;;;;;;;5925368;28;10000090;-68
2021/01/19 09:12:32;;;;;;;139.05;69.78;;;;;;;;;;6275616;28;20044;-68
2021/01/19 09:15:37;;;;;;;131.98;66.28;;;;;;;;;;6280047;28;20557;-69
2021/01/19 09:18:38;;;;;;;143.45;68.97;;;;;;;;;;6278983;28;20458;-69
2021/01/19 09:21:39;;;;;;;140.95;68.53;;;;;;;;;;6282073;28;20049;-69
2021/01/19 09:24:41;;;;;;;130.52;65.53;;;;;;;;;;6284666;28;20717;-69
2021/01/19 09:27:42;;;;;;;125.65;64.38;;;;;;;;;;6277420;28;20075;-69
2021/01/19 09:30:44;;;;;;;133.45;66.72;;;;;;;;;;6278524;28;21742;-71
2021/01/19 09:33:46;;;;;;;131.70;64.68;;;;;;;;;;6282954;28;20136;-69
2021/01/19 09:36:48;;;;;;;135.25;68.20;;;;;;;;;;6279640;28;20188;-69
2021/01/19 09:39:49;;;;;;;126.57;64.00;;;;;;;;;;6283518;28;20053;-67
2021/01/19 09:42:51;;;;;;;137.25;67.25;;;;;;;;;;6279759;28;20399;-68
2021/01/19 09:45:57;;;;;;;127.78;65.15;;;;;;;;;;6281944;28;20136;-68
2021/01/19 09:48:59;;;;;;;134.52;65.80;;;;;;;;;;6278672;28;20041;-68
2021/01/19 09:52:07;;;;;;;137.07;67.85;;;;;;;;;;6272369;28;20124;-68
2021/01/19 09:55:10;;;;;;;135.80;68.75;;;;;;;;;;6262443;28;20229;-70
2021/01/19 09:58:20;;;;;;;132.18;69.13;;;;;;;;;;6275802;28;20044;-68
2021/01/19 10:01:22;;;;;;;133.05;69.95;;;;;;;;;;6275345;28;20102;-69
2021/01/19 10:04:24;;;;;;;143.77;71.82;;;;;;;;;;6277744;28;20454;-68
2021/01/19 10:07:28;;;;;;;148.93;73.18;;;;;;;;;;6277653;28;20503;-68
2021/01/19 10:10:34;;;;;;;131.77;70.00;;;;;;;;;;6276636;28;20657;-69
2021/01/19 10:13:36;;;;;;;135.48;70.55;;;;;;;;;;6277409;28;20179;-71
2021/01/19 10:16:41;;;;;;;140.82;76.22;;;;;;;;;;6278492;28;20476;-69
2021/01/19 10:22:56;;;;;;;146.32;76.78;;;;;;;;;;6354228;22;20053;-69
2021/01/19 10:26:09;;;;;;;151.20;73.32;;;;;;;;;;6235327;28;20115;-70
2021/01/19 10:29:12;;;;;;;139.30;74.80;;;;;;;;;;6211905;28;20065;-69
2021/01/19 10:32:14;;;;;;;147.88;77.47;;;;;;;;;;6233464;28;20128;-69
2021/01/19 10:35:25;;;;;;;142.07;72.20;;;;;;;;;;6242599;28;20045;-70
2021/01/19 10:38:26;;;;;;;138.15;72.95;;;;;;;;;;6220342;28;20172;-70
2021/01/19 10:41:30;;;;;;;130.75;68.38;;;;;;;;;;6237679;28;20060;-68
2021/01/19 10:44:33;;;;;;;132.70;68.90;;;;;;;;;;6242282;28;20117;-68
2021/01/19 10:47:38;;;;;;;131.75;68.50;;;;;;;;;;6230110;28;20143;-68
2021/01/19 10:50:39;;;;;;;;;;;;;;;;;;6231713;28;20068;-68
2021/01/19 10:53:41;;;;;;;133.65;68.25;;;;;;;;;;6229607;28;19924;-70
2021/01/19 10:56:45;;;;;;;128.07;69.45;;;;;;;;;;6227373;28;20045;-68
2021/01/19 10:59:47;;;;;;;136.02;71.30;;;;;;;;;;6222416;28;20649;-68
2021/01/19 11:02:48;;;;;;;133.50;70.90;;;;;;;;;;6235125;28;20046;-68
2021/01/19 11:05:50;;;;;;;133.75;70.93;;;;;;;;;;6230409;28;20077;-72
2021/01/19 11:08:51;;;;;;;122.80;68.53;;;;;;;;;;6234592;28;20545;-68
2021/01/19 11:11:53;;;;;;;125.90;68.82;;;;;;;;;;6233671;28;20768;-70
2021/01/19 11:14:54;;;;;;;122.10;68.47;;;;;;;;;;6241973;28;20136;-72
2021/01/19 11:17:56;;;;;;;130.00;73.38;;;;;;;;;;6239132;28;20136;-68
2021/01/19 11:20:57;;;;;;;124.22;67.22;;;;;;;;;;6229492;28;20049;-69
2021/01/19 11:23:58;;;;;;;125.07;73.38;;;;;;;;;;6216045;28;20488;-68
2021/01/19 11:26:59;;;;;;;124.03;69.78;;;;;;;;;;6210933;28;20052;-69
2021/01/19 11:30:02;;;;;;;124.95;69.88;;;;;;;;;;6212493;28;20038;-69
2021/01/19 11:33:03;;;;;;;119.13;68.57;;;;;;;;;;6209326;28;20507;-68
2021/01/19 11:36:04;;;;;;;134.05;69.43;;;;;;;;;;6213590;28;20049;-68
2021/01/19 11:39:07;;;;;;;123.40;71.45;;;;;;;;;;6179909;28;20038;-69
2021/01/19 11:42:08;;;;;;;127.57;71.30;;;;;;;;;;6210030;28;20078;-68
2021/01/19 11:45:11;;;;;;;127.85;73.40;;;;;;;;;;6206643;28;20076;-68
2021/01/19 11:48:12;;;;;;;127.68;74.30;;;;;;;;;;6208308;28;20054;-68
2021/01/19 11:51:17;;;;;;;119.22;69.95;;;;;;;;;;5862921;28;10000340;-67
2021/01/19 11:54:18;;;;;;;130.75;75.78;;;;;;;;;;6213041;28;20054;-68
2021/01/19 11:57:19;;;;;;;132.23;74.75;;;;;;;;;;6213121;28;20052;-70
2021/01/19 12:00:21;;;;;;;129.80;75.60;;;;;;;;;;6213172;28;20045;-69
2021/01/19 12:03:23;;;;;;;140.77;75.55;;;;;;;;;;6214482;28;20421;-67
2021/01/19 12:06:24;;;;;;;131.45;76.22;;;;;;;;;;6210935;28;20058;-68
2021/01/19 12:09:25;;;;;;;141.18;78.40;;;;;;;;;;6207283;28;20045;-68
2021/01/19 12:12:26;;;;;;;135.43;78.22;;;;;;;;;;6214758;28;20056;-67
2021/01/19 12:15:28;;;;;;;137.40;76.85;;;;;;;;;;6211512;28;20168;-69
2021/01/19 12:18:29;;;;;;;131.82;77.53;;;;;;;;;;6210989;28;20133;-68
2021/01/19 12:21:30;;;;;;;129.65;73.65;;;;;;;;;;6206713;28;20077;-70
2021/01/19 12:24:36;;;;;;;132.63;77.50;;;;;;;;;;6215119;28;21322;-68
2021/01/19 12:27:37;;;;;;;133.55;77.90;;;;;;;;;;6214763;28;20176;-67
2021/01/19 12:30:39;;;;;;;130.60;78.18;;;;;;;;;;6212372;28;20572;-67
2021/01/19 12:33:40;;;;;;;134.32;74.40;;;;;;;;;;6216620;28;20497;-68
2021/01/19 12:36:41;;;;;;;106.47;65.57;;;;;;;;;;6212716;28;20082;-68
2021/01/19 12:39:42;;;;;;;108.47;62.03;;;;;;;;;;6217302;28;20057;-65
2021/01/19 12:42:43;;;;;;;101.75;57.65;;;;;;;;;;6213150;28;20049;-66
2021/01/19 12:45:45;;;;;;;102.28;59.45;;;;;;;;;;6209249;28;20058;-68
2021/01/19 12:48:46;;;;;;;104.60;58.13;;;;;;;;;;6204238;28;20060;-67
2021/01/19 12:51:47;;;;;;;102.30;61.10;;;;;;;;;;6222352;28;20049;-66
2021/01/19 12:54:48;;;;;;;106.65;60.92;;;;;;;;;;6213385;28;20042;-67
2021/01/19 12:57:49;;;;;;;105.57;64.93;;;;;;;;;;6212228;28;20050;-68
2021/01/19 13:00:51;;;;;;;118.55;67.28;;;;;;;;;;6212954;28;20053;-66
2021/01/19 13:03:52;;;;;;;122.13;76.10;;;;;;;;;;6219428;28;20073;-67
2021/01/19 13:06:53;;;;;;;120.70;72.72;;;;;;;;;;6214510;28;21067;-67
2021/01/19 13:09:54;;;;;;;123.25;71.55;;;;;;;;;;6211293;28;20037;-67
2021/01/19 13:12:55;;;;;;;124.35;70.32;;;;;;;;;;6210437;28;20054;-66
2021/01/19 13:15:57;;;;;;;128.60;74.88;;;;;;;;;;6216939;28;20053;-69
2021/01/19 13:18:58;;;;;;;131.73;77.57;;;;;;;;;;6216596;28;20079;-69
2021/01/19 13:21:59;;;;;;;134.00;77.43;;;;;;;;;;6215801;28;20045;-67
2021/01/19 13:25:01;;;;;;;137.00;83.97;;;;;;;;;;6213893;28;20054;-67
2021/01/19 13:28:02;;;;;;;132.90;76.70;;;;;;;;;;6214463;28;20053;-67
2021/01/19 13:31:04;;;;;;;130.90;76.40;;;;;;;;;;6215818;28;20095;-68
2021/01/19 13:34:05;;;;;;;132.13;76.63;;;;;;;;;;6213279;28;20050;-67
2021/01/19 13:37:06;;;;;;;142.88;81.15;;;;;;;;;;6215200;28;20041;-67
2021/01/19 13:40:08;;;;;;;142.05;77.90;;;;;;;;;;6212710;28;20046;-68
2021/01/19 13:43:09;;;;;;;144.13;86.40;;;;;;;;;;6208879;28;20057;-68
2021/01/19 13:46:11;;;;;;;124.72;75.60;;;;;;;;;;6212793;28;20050;-67
2021/01/19 13:49:13;;;;;;;137.00;81.03;;;;;;;;;;6213834;28;20045;-68
2021/01/19 13:52:14;;;;;;;129.77;74.45;;;;;;;;;;5521523;28;10000863;-67
2021/01/19 13:55:15;;;;;;;127.25;72.38;;;;;;;;;;6212417;28;20046;-67
2021/01/19 13:58:16;;;;;;;129.80;74.45;;;;;;;;;;6215877;28;20041;-68
2021/01/19 14:01:18;;;;;;;128.23;74.55;;;;;;;;;;6212141;28;20045;-67
2021/01/19 14:04:19;;;;;;;125.35;74.57;;;;;;;;;;6213336;28;20572;-67
2021/01/19 14:07:20;;;;;;;138.43;75.60;;;;;;;;;;6213569;28;20050;-70
2021/01/19 14:10:21;;;;;;;128.32;74.28;;;;;;;;;;6210818;28;20711;-69
2021/01/19 14:13:22;;;;;;;122.88;73.57;;;;;;;;;;6212469;28;20137;-69
2021/01/19 14:16:24;;;;;;;135.73;79.18;;;;;;;;;;6209407;28;20140;-71
2021/01/19 14:19:25;;;;;;;126.78;76.93;;;;;;;;;;6215962;28;20050;-68
2021/01/19 14:22:28;;;;;;;131.43;74.40;;;;;;;;;;6214436;28;20045;-69
2021/01/19 14:25:29;;;;;;;126.43;74.07;;;;;;;;;;6217985;28;20089;-67
2021/01/19 14:28:30;;;;;;;136.07;75.72;;;;;;;;;;6214720;28;20726;-68
2021/01/19 14:31:36;;;;;;;135.13;77.20;;;;;;;;;;6216390;28;20137;-67
2021/01/19 14:34:37;;;;;;;128.43;76.00;;;;;;;;;;6215259;28;20045;-68
2021/01/19 14:37:38;;;;;;;134.70;76.40;;;;;;;;;;6198642;28;20128;-69
2021/01/19 14:40:39;;;;;;;134.35;72.07;;;;;;;;;;6211572;28;20064;-69
2021/01/19 14:43:40;;;;;;;125.75;72.53;;;;;;;;;;6215654;28;20061;-68
2021/01/19 14:46:45;;;;;;;125.07;72.03;;;;;;;;;;6212502;28;20481;-69
2021/01/19 14:49:46;;;;;;;128.35;79.22;;;;;;;;;;6211581;28;20072;-70
2021/01/19 14:52:47;;;;;;;134.73;81.22;;;;;;;;;;6212491;28;20663;-67
2021/01/19 14:55:48;;;;;;;135.43;76.75;;;;;;;;;;6209923;28;20498;-67
2021/01/19 14:58:49;;;;;;;123.18;72.72;;;;;;;;;;6211192;28;20421;-68
2021/01/19 15:01:51;;;;;;;128.18;74.47;;;;;;;;;;6207665;28;20141;-68
2021/01/19 15:04:52;;;;;;;136.43;73.18;;;;;;;;;;6212583;28;20064;-68
2021/01/19 15:07:54;;;;;;;133.02;76.93;;;;;;;;;;6209325;28;20484;-67
2021/01/19 15:10:55;;;;;;;129.45;72.90;;;;;;;;;;6211949;28;20092;-69
2021/01/19 15:13:56;;;;;;;124.22;72.30;;;;;;;;;;6218318;28;20045;-66
2021/01/19 15:16:59;;;;;;;126.63;72.65;;;;;;;;;;6214529;28;20116;-69
2021/01/19 15:20:00;;;;;;;133.75;73.65;;;;;;;;;;6217763;28;20472;-68
2021/01/19 15:23:01;;;;;;;127.35;72.45;;;;;;;;;;6220426;28;20129;-69
2021/01/19 15:26:02;;;;;;;129.48;73.95;;;;;;;;;;6216086;28;20141;-70
2021/01/19 15:29:04;;;;;;;127.32;72.10;;;;;;;;;;6211342;28;20096;-71
2021/01/19 15:32:06;;;;;;;133.32;72.35;;;;;;;;;;6209517;28;20094;-69
2021/01/19 15:35:08;;;;;;;124.28;72.40;;;;;;;;;;6207334;28;20064;-68
2021/01/19 15:38:09;;;;;;;121.30;71.97;;;;;;;;;;6203439;28;20485;-68
2021/01/19 15:41:15;;;;;;;127.30;72.13;;;;;;;;;;6211414;28;20045;-67
2021/01/19 15:44:16;;;;;;;129.02;73.55;;;;;;;;;;6207588;28;20061;-67
2021/01/19 15:47:18;;;;;;;121.65;72.65;;;;;;;;;;6215694;28;20136;-65
2021/01/19 15:50:19;;;;;;;127.30;74.25;;;;;;;;;;6212150;28;20056;-67
2021/01/19 15:53:20;;;;;;;120.88;71.18;;;;;;;;;;6205704;28;20050;-70
2021/01/19 15:56:25;;;;;;;127.25;73.97;;;;;;;;;;6205707;28;20046;-68
2021/01/19 15:59:28;;;;;;;128.80;75.22;;;;;;;;;;6207572;28;20527;-66
2021/01/19 16:02:30;;;;;;;127.18;73.65;;;;;;;;;;6219666;28;20503;-70
2021/01/19 16:05:31;;;;;;;123.28;72.72;;;;;;;;;;6216941;28;20491;-66
2021/01/19 16:08:32;;;;;;;128.68;72.57;;;;;;;;;;6215163;28;20136;-67
2021/01/19 16:11:33;;;;;;;128.30;73.53;;;;;;;;;;6210901;28;20137;-67
2021/01/19 16:14:34;;;;;;;124.05;73.50;;;;;;;;;;6213532;28;20512;-69
2021/01/19 16:17:36;;;;;;;126.80;74.53;;;;;;;;;;6209604;28;20054;-69
2021/01/19 16:20:37;;;;;;;125.90;74.45;;;;;;;;;;6208771;28;20520;-69
2021/01/19 16:23:38;;;;;;;130.60;74.43;;;;;;;;;;6214339;28;20054;-67
2021/01/19 16:26:39;;;;;;;128.95;75.57;;;;;;;;;;6211008;28;20077;-69
2021/01/19 16:29:40;;;;;;;129.88;76.35;;;;;;;;;;6208546;28;20095;-68
2021/01/19 16:32:42;;;;;;;131.48;76.88;;;;;;;;;;6208838;28;20054;-67
2021/01/19 16:35:44;;;;;;;128.93;75.97;;;;;;;;;;6210089;28;20045;-66
2021/01/19 16:38:45;;;;;;;132.35;74.63;;;;;;;;;;6215840;28;20045;-66
2021/01/19 16:41:46;;;;;;;127.03;74.22;;;;;;;;;;6209647;28;20140;-67
2021/01/19 16:44:47;;;;;;;125.03;75.93;;;;;;;;;;6208627;28;20056;-66
2021/01/19 16:47:49;;;;;;;129.27;72.82;;;;;;;;;;6217863;28;20539;-67
2021/01/19 16:50:51;;;;;;;125.78;73.60;;;;;;;;;;6209377;28;20093;-69
2021/01/19 16:53:53;;;;;;;122.90;72.05;;;;;;;;;;6215373;28;20057;-68
2021/01/19 16:56:54;;;;;;;126.07;73.90;;;;;;;;;;6213667;28;20160;-66
2021/01/19 16:59:56;;;;;;;118.97;62.92;;;;;;;;;;5545260;28;10000478;-69
2021/01/19 17:02:58;;;;;;;123.20;70.63;;;;;;;;;;6209415;28;20788;-68
2021/01/19 17:05:59;;;;;;;128.00;76.72;;;;;;;;;;6209052;28;20393;-69
2021/01/19 17:09:03;;;;;;;133.02;75.70;;;;;;;;;;6209830;28;20056;-67
2021/01/19 17:12:05;;;;;;;130.52;73.35;;;;;;;;;;6213217;28;20125;-67
2021/01/19 17:15:07;;;;;;;124.90;73.07;;;;;;;;;;6210950;28;20145;-70
2021/01/19 17:18:09;;;;;;;131.30;73.00;;;;;;;;;;6213820;28;20049;-67
2021/01/19 17:21:10;;;;;;;130.43;74.13;;;;;;;;;;6211813;28;20112;-66
2021/01/19 17:24:11;;;;;;;124.65;72.90;;;;;;;;;;6216658;28;20089;-67
2021/01/19 17:27:12;;;;;;;134.20;73.80;;;;;;;;;;6212678;28;20141;-69
2021/01/19 17:30:15;;;;;;;133.25;74.40;;;;;;;;;;6206655;28;20125;-68